sensor_id;sensor_type;location;lat;lon;timestamp;P1;durP1;ratioP1;P2;durP2;ratioP2
76336;SDS011;65157;50.082;18.178;2024-03-02T00:00:06;87.90;;;41.20;;
76336;SDS011;65157;50.082;18.178;2024-03-02T00:02:33;76.90;;;39.10;;
76336;SDS011;65157;50.082;18.178;2024-03-02T00:04:59;76.60;;;36.90;;
76336;SDS011;65157;50.082;18.178;2024-03-02T00:07:25;84.40;;;39.00;;
76336;SDS011;65157;50.082;18.178;2024-03-02T00:09:53;85.80;;;41.30;;
76336;SDS011;65157;50.082;18.178;2024-03-02T00:12:19;94.00;;;44.50;;
76336;SDS011;65157;50.082;18.178;2024-03-02T00:14:45;93.00;;;41.10;;
76336;SDS011;65157;50.082;18.178;2024-03-02T00:17:15;93.00;;;44.20;;
76336;SDS011;65157;50.082;18.178;2024-03-02T00:19:47;106.30;;;47.20;;
76336;SDS011;65157;50.082;18.178;2024-03-02T00:22:12;106.60;;;46.10;;
76336;SDS011;65157;50.082;18.178;2024-03-02T00:24:38;104.60;;;46.80;;
76336;SDS011;65157;50.082;18.178;2024-03-02T00:27:05;94.90;;;40.80;;
76336;SDS011;65157;50.082;18.178;2024-03-02T00:29:34;94.90;;;44.40;;
76336;SDS011;65157;50.082;18.178;2024-03-02T00:32:02;92.10;;;43.70;;
76336;SDS011;65157;50.082;18.178;2024-03-02T00:34:28;85.50;;;40.30;;
76336;SDS011;65157;50.082;18.178;2024-03-02T00:36:57;86.50;;;40.70;;
76336;SDS011;65157;50.082;18.178;2024-03-02T00:39:23;106.40;;;47.90;;
76336;SDS011;65157;50.082;18.178;2024-03-02T00:41:49;98.30;;;44.60;;
76336;SDS011;65157;50.082;18.178;2024-03-02T00:44:15;103.00;;;41.70;;
76336;SDS011;65157;50.082;18.178;2024-03-02T00:46:42;106.80;;;43.50;;
76336;SDS011;65157;50.082;18.178;2024-03-02T00:49:23;109.30;;;42.20;;
76336;SDS011;65157;50.082;18.178;2024-03-02T00:51:51;103.20;;;42.80;;
76336;SDS011;65157;50.082;18.178;2024-03-02T00:54:26;92.10;;;39.10;;
76336;SDS011;65157;50.082;18.178;2024-03-02T00:56:53;83.20;;;39.00;;
76336;SDS011;65157;50.082;18.178;2024-03-02T00:59:19;83.20;;;38.40;;
76336;SDS011;65157;50.082;18.178;2024-03-02T01:01:45;84.00;;;39.30;;
76336;SDS011;65157;50.082;18.178;2024-03-02T01:04:11;82.10;;;37.00;;
76336;SDS011;65157;50.082;18.178;2024-03-02T01:06:37;81.50;;;36.00;;
76336;SDS011;65157;50.082;18.178;2024-03-02T01:09:03;89.70;;;40.00;;
76336;SDS011;65157;50.082;18.178;2024-03-02T01:11:29;92.70;;;39.90;;
76336;SDS011;65157;50.082;18.178;2024-03-02T01:13:55;96.20;;;43.00;;
76336;SDS011;65157;50.082;18.178;2024-03-02T01:16:21;124.10;;;50.30;;
76336;SDS011;65157;50.082;18.178;2024-03-02T01:18:47;106.10;;;44.50;;
76336;SDS011;65157;50.082;18.178;2024-03-02T01:21:13;112.60;;;46.40;;
76336;SDS011;65157;50.082;18.178;2024-03-02T01:26:06;103.70;;;40.30;;
76336;SDS011;65157;50.082;18.178;2024-03-02T01:28:32;89.40;;;40.10;;
76336;SDS011;65157;50.082;18.178;2024-03-02T01:30:58;95.40;;;39.30;;
76336;SDS011;65157;50.082;18.178;2024-03-02T01:33:24;84.10;;;39.80;;
76336;SDS011;65157;50.082;18.178;2024-03-02T01:35:50;78.90;;;33.90;;
76336;SDS011;65157;50.082;18.178;2024-03-02T01:38:16;77.90;;;36.90;;
76336;SDS011;65157;50.082;18.178;2024-03-02T01:40:42;77.70;;;37.70;;
76336;SDS011;65157;50.082;18.178;2024-03-02T01:43:08;82.10;;;38.00;;
76336;SDS011;65157;50.082;18.178;2024-03-02T01:45:35;81.40;;;37.60;;
76336;SDS011;65157;50.082;18.178;2024-03-02T01:48:01;76.00;;;37.30;;
76336;SDS011;65157;50.082;18.178;2024-03-02T01:50:27;69.10;;;33.90;;
76336;SDS011;65157;50.082;18.178;2024-03-02T01:52:57;73.60;;;33.50;;
76336;SDS011;65157;50.082;18.178;2024-03-02T01:55:24;72.30;;;35.40;;
76336;SDS011;65157;50.082;18.178;2024-03-02T01:57:50;70.30;;;35.20;;
76336;SDS011;65157;50.082;18.178;2024-03-02T02:00:17;69.60;;;34.00;;
76336;SDS011;65157;50.082;18.178;2024-03-02T02:02:45;72.80;;;32.80;;
76336;SDS011;65157;50.082;18.178;2024-03-02T02:05:11;68.60;;;33.00;;
76336;SDS011;65157;50.082;18.178;2024-03-02T02:07:37;65.50;;;33.20;;
76336;SDS011;65157;50.082;18.178;2024-03-02T02:10:03;67.20;;;32.70;;
76336;SDS011;65157;50.082;18.178;2024-03-02T02:12:29;69.10;;;34.10;;
76336;SDS011;65157;50.082;18.178;2024-03-02T02:14:55;69.10;;;33.70;;
76336;SDS011;65157;50.082;18.178;2024-03-02T02:17:21;65.50;;;32.10;;
76336;SDS011;65157;50.082;18.178;2024-03-02T02:19:47;69.60;;;31.70;;
76336;SDS011;65157;50.082;18.178;2024-03-02T02:22:13;67.30;;;32.90;;
76336;SDS011;65157;50.082;18.178;2024-03-02T02:24:42;62.00;;;30.60;;
76336;SDS011;65157;50.082;18.178;2024-03-02T02:27:08;74.70;;;32.00;;
76336;SDS011;65157;50.082;18.178;2024-03-02T02:29:34;72.70;;;32.40;;
76336;SDS011;65157;50.082;18.178;2024-03-02T02:32:00;63.10;;;29.40;;
76336;SDS011;65157;50.082;18.178;2024-03-02T02:34:26;64.40;;;30.10;;
76336;SDS011;65157;50.082;18.178;2024-03-02T02:36:53;65.80;;;32.50;;
76336;SDS011;65157;50.082;18.178;2024-03-02T02:39:21;76.70;;;35.80;;
76336;SDS011;65157;50.082;18.178;2024-03-02T02:44:14;69.70;;;31.90;;
76336;SDS011;65157;50.082;18.178;2024-03-02T02:46:40;70.10;;;34.60;;
76336;SDS011;65157;50.082;18.178;2024-03-02T02:49:06;76.90;;;35.30;;
76336;SDS011;65157;50.082;18.178;2024-03-02T02:51:33;76.60;;;32.20;;
76336;SDS011;65157;50.082;18.178;2024-03-02T02:53:58;71.90;;;33.50;;
76336;SDS011;65157;50.082;18.178;2024-03-02T02:56:25;71.80;;;32.80;;
76336;SDS011;65157;50.082;18.178;2024-03-02T02:58:51;80.60;;;37.10;;
76336;SDS011;65157;50.082;18.178;2024-03-02T03:01:17;78.40;;;37.60;;
76336;SDS011;65157;50.082;18.178;2024-03-02T03:03:42;77.70;;;34.60;;
76336;SDS011;65157;50.082;18.178;2024-03-02T03:06:09;84.70;;;35.40;;
76336;SDS011;65157;50.082;18.178;2024-03-02T03:08:35;76.60;;;34.00;;
76336;SDS011;65157;50.082;18.178;2024-03-02T03:11:01;82.10;;;36.30;;
76336;SDS011;65157;50.082;18.178;2024-03-02T03:13:27;78.60;;;35.40;;
76336;SDS011;65157;50.082;18.178;2024-03-02T03:15:53;83.30;;;37.50;;
76336;SDS011;65157;50.082;18.178;2024-03-02T03:18:19;81.80;;;33.90;;
76336;SDS011;65157;50.082;18.178;2024-03-02T03:20:45;74.70;;;33.30;;
76336;SDS011;65157;50.082;18.178;2024-03-02T03:23:11;69.50;;;32.90;;
76336;SDS011;65157;50.082;18.178;2024-03-02T03:25:37;70.00;;;31.80;;
76336;SDS011;65157;50.082;18.178;2024-03-02T03:28:03;73.50;;;33.30;;
76336;SDS011;65157;50.082;18.178;2024-03-02T03:30:29;72.60;;;34.80;;
76336;SDS011;65157;50.082;18.178;2024-03-02T03:32:55;77.50;;;33.90;;
76336;SDS011;65157;50.082;18.178;2024-03-02T03:35:21;84.60;;;33.20;;
76336;SDS011;65157;50.082;18.178;2024-03-02T03:37:47;81.50;;;35.20;;
76336;SDS011;65157;50.082;18.178;2024-03-02T03:40:12;85.80;;;37.20;;
76336;SDS011;65157;50.082;18.178;2024-03-02T03:42:38;89.60;;;38.10;;
76336;SDS011;65157;50.082;18.178;2024-03-02T03:45:05;79.90;;;35.40;;
76336;SDS011;65157;50.082;18.178;2024-03-02T03:47:32;75.90;;;32.90;;
76336;SDS011;65157;50.082;18.178;2024-03-02T03:49:58;81.70;;;35.60;;
76336;SDS011;65157;50.082;18.178;2024-03-02T03:52:24;72.50;;;34.60;;
76336;SDS011;65157;50.082;18.178;2024-03-02T03:54:50;75.50;;;34.80;;
76336;SDS011;65157;50.082;18.178;2024-03-02T03:57:16;77.70;;;34.60;;
76336;SDS011;65157;50.082;18.178;2024-03-02T03:59:42;68.90;;;34.20;;
76336;SDS011;65157;50.082;18.178;2024-03-02T04:02:08;75.60;;;34.40;;
76336;SDS011;65157;50.082;18.178;2024-03-02T04:04:35;81.80;;;38.50;;
76336;SDS011;65157;50.082;18.178;2024-03-02T04:07:01;80.10;;;37.20;;
76336;SDS011;65157;50.082;18.178;2024-03-02T04:09:27;90.80;;;42.50;;
76336;SDS011;65157;50.082;18.178;2024-03-02T04:11:52;94.90;;;38.50;;
76336;SDS011;65157;50.082;18.178;2024-03-02T04:14:19;83.90;;;36.80;;
76336;SDS011;65157;50.082;18.178;2024-03-02T04:16:45;74.70;;;33.70;;
76336;SDS011;65157;50.082;18.178;2024-03-02T04:19:10;82.10;;;35.50;;
76336;SDS011;65157;50.082;18.178;2024-03-02T04:21:36;75.30;;;34.20;;
76336;SDS011;65157;50.082;18.178;2024-03-02T04:24:02;79.70;;;37.30;;
76336;SDS011;65157;50.082;18.178;2024-03-02T04:26:29;76.00;;;36.90;;
76336;SDS011;65157;50.082;18.178;2024-03-02T04:28:54;70.30;;;33.20;;
76336;SDS011;65157;50.082;18.178;2024-03-02T04:31:20;72.20;;;35.10;;
76336;SDS011;65157;50.082;18.178;2024-03-02T04:33:46;69.20;;;33.90;;
76336;SDS011;65157;50.082;18.178;2024-03-02T04:36:12;74.80;;;34.30;;
76336;SDS011;65157;50.082;18.178;2024-03-02T04:38:38;78.70;;;35.80;;
76336;SDS011;65157;50.082;18.178;2024-03-02T04:41:04;80.60;;;37.20;;
76336;SDS011;65157;50.082;18.178;2024-03-02T04:43:31;76.00;;;36.10;;
76336;SDS011;65157;50.082;18.178;2024-03-02T04:46:00;77.10;;;36.50;;
76336;SDS011;65157;50.082;18.178;2024-03-02T04:48:26;74.70;;;36.00;;
76336;SDS011;65157;50.082;18.178;2024-03-02T04:50:52;80.30;;;34.40;;
76336;SDS011;65157;50.082;18.178;2024-03-02T04:53:18;76.30;;;35.30;;
76336;SDS011;65157;50.082;18.178;2024-03-02T04:55:44;71.50;;;36.10;;
76336;SDS011;65157;50.082;18.178;2024-03-02T04:58:11;76.70;;;33.50;;
76336;SDS011;65157;50.082;18.178;2024-03-02T05:00:37;79.10;;;36.70;;
76336;SDS011;65157;50.082;18.178;2024-03-02T05:03:03;72.30;;;33.00;;
76336;SDS011;65157;50.082;18.178;2024-03-02T05:05:29;75.70;;;36.80;;
76336;SDS011;65157;50.082;18.178;2024-03-02T05:07:55;69.60;;;34.70;;
76336;SDS011;65157;50.082;18.178;2024-03-02T05:10:21;71.10;;;33.40;;
76336;SDS011;65157;50.082;18.178;2024-03-02T05:12:46;72.30;;;36.50;;
76336;SDS011;65157;50.082;18.178;2024-03-02T05:15:13;83.90;;;40.20;;
76336;SDS011;65157;50.082;18.178;2024-03-02T05:17:40;76.50;;;35.80;;
76336;SDS011;65157;50.082;18.178;2024-03-02T05:20:07;75.30;;;35.60;;
76336;SDS011;65157;50.082;18.178;2024-03-02T05:22:33;71.90;;;32.70;;
76336;SDS011;65157;50.082;18.178;2024-03-02T05:25:00;71.00;;;35.90;;
76336;SDS011;65157;50.082;18.178;2024-03-02T05:27:26;71.40;;;33.90;;
76336;SDS011;65157;50.082;18.178;2024-03-02T05:29:52;70.80;;;34.30;;
76336;SDS011;65157;50.082;18.178;2024-03-02T05:32:18;64.70;;;31.70;;
76336;SDS011;65157;50.082;18.178;2024-03-02T05:34:44;64.00;;;31.50;;
76336;SDS011;65157;50.082;18.178;2024-03-02T05:37:10;67.30;;;32.60;;
76336;SDS011;65157;50.082;18.178;2024-03-02T05:39:36;63.80;;;32.70;;
76336;SDS011;65157;50.082;18.178;2024-03-02T05:42:02;62.90;;;29.70;;
76336;SDS011;65157;50.082;18.178;2024-03-02T05:44:28;65.90;;;33.40;;
76336;SDS011;65157;50.082;18.178;2024-03-02T05:46:54;65.40;;;32.10;;
76336;SDS011;65157;50.082;18.178;2024-03-02T05:49:21;65.70;;;29.00;;
76336;SDS011;65157;50.082;18.178;2024-03-02T05:51:47;65.90;;;31.20;;
76336;SDS011;65157;50.082;18.178;2024-03-02T05:54:13;59.30;;;31.90;;
76336;SDS011;65157;50.082;18.178;2024-03-02T05:56:39;66.80;;;33.10;;
76336;SDS011;65157;50.082;18.178;2024-03-02T05:59:05;63.90;;;33.00;;
76336;SDS011;65157;50.082;18.178;2024-03-02T06:01:34;69.30;;;34.20;;
76336;SDS011;65157;50.082;18.178;2024-03-02T06:03:59;66.90;;;33.00;;
76336;SDS011;65157;50.082;18.178;2024-03-02T06:06:25;72.50;;;35.70;;
76336;SDS011;65157;50.082;18.178;2024-03-02T06:08:51;65.20;;;32.00;;
76336;SDS011;65157;50.082;18.178;2024-03-02T06:11:20;72.30;;;35.00;;
76336;SDS011;65157;50.082;18.178;2024-03-02T06:13:46;64.80;;;31.00;;
76336;SDS011;65157;50.082;18.178;2024-03-02T06:16:12;72.10;;;34.50;;
76336;SDS011;65157;50.082;18.178;2024-03-02T06:18:38;65.10;;;30.20;;
76336;SDS011;65157;50.082;18.178;2024-03-02T06:21:04;68.90;;;34.80;;
76336;SDS011;65157;50.082;18.178;2024-03-02T06:23:30;69.60;;;34.60;;
76336;SDS011;65157;50.082;18.178;2024-03-02T06:25:56;71.80;;;35.00;;
76336;SDS011;65157;50.082;18.178;2024-03-02T06:28:22;70.80;;;33.10;;
76336;SDS011;65157;50.082;18.178;2024-03-02T06:30:47;75.10;;;33.70;;
76336;SDS011;65157;50.082;18.178;2024-03-02T06:33:13;71.20;;;34.40;;
76336;SDS011;65157;50.082;18.178;2024-03-02T06:35:39;71.20;;;35.60;;
76336;SDS011;65157;50.082;18.178;2024-03-02T06:38:05;71.50;;;35.70;;
76336;SDS011;65157;50.082;18.178;2024-03-02T06:40:31;72.90;;;35.70;;
76336;SDS011;65157;50.082;18.178;2024-03-02T06:42:57;69.10;;;35.40;;
76336;SDS011;65157;50.082;18.178;2024-03-02T06:45:23;73.10;;;36.30;;
76336;SDS011;65157;50.082;18.178;2024-03-02T06:47:48;70.50;;;36.10;;
76336;SDS011;65157;50.082;18.178;2024-03-02T06:50:15;68.90;;;32.80;;
76336;SDS011;65157;50.082;18.178;2024-03-02T06:52:42;77.80;;;35.40;;
76336;SDS011;65157;50.082;18.178;2024-03-02T06:55:08;76.20;;;36.80;;
76336;SDS011;65157;50.082;18.178;2024-03-02T06:57:35;76.90;;;36.60;;
76336;SDS011;65157;50.082;18.178;2024-03-02T07:00:01;84.20;;;37.40;;
76336;SDS011;65157;50.082;18.178;2024-03-02T07:02:28;80.70;;;39.00;;
76336;SDS011;65157;50.082;18.178;2024-03-02T07:04:54;79.90;;;35.30;;
76336;SDS011;65157;50.082;18.178;2024-03-02T07:07:20;72.40;;;34.10;;
76336;SDS011;65157;50.082;18.178;2024-03-02T07:09:46;79.50;;;38.20;;
76336;SDS011;65157;50.082;18.178;2024-03-02T07:12:12;74.00;;;37.80;;
76336;SDS011;65157;50.082;18.178;2024-03-02T07:14:38;78.80;;;36.60;;
76336;SDS011;65157;50.082;18.178;2024-03-02T07:17:04;76.10;;;34.10;;
76336;SDS011;65157;50.082;18.178;2024-03-02T07:19:31;81.50;;;39.00;;
76336;SDS011;65157;50.082;18.178;2024-03-02T07:21:57;77.70;;;39.20;;
76336;SDS011;65157;50.082;18.178;2024-03-02T07:24:23;80.60;;;38.50;;
76336;SDS011;65157;50.082;18.178;2024-03-02T07:26:48;74.60;;;37.00;;
76336;SDS011;65157;50.082;18.178;2024-03-02T07:29:14;78.00;;;34.30;;
76336;SDS011;65157;50.082;18.178;2024-03-02T07:31:42;81.50;;;39.10;;
76336;SDS011;65157;50.082;18.178;2024-03-02T07:34:08;83.10;;;39.80;;
76336;SDS011;65157;50.082;18.178;2024-03-02T07:36:34;83.10;;;39.40;;
76336;SDS011;65157;50.082;18.178;2024-03-02T07:39:01;86.40;;;39.60;;
76336;SDS011;65157;50.082;18.178;2024-03-02T07:41:27;90.20;;;42.10;;
76336;SDS011;65157;50.082;18.178;2024-03-02T07:43:53;83.30;;;38.80;;
76336;SDS011;65157;50.082;18.178;2024-03-02T07:46:19;86.30;;;39.30;;
76336;SDS011;65157;50.082;18.178;2024-03-02T07:48:45;78.80;;;38.70;;
76336;SDS011;65157;50.082;18.178;2024-03-02T07:51:11;82.80;;;41.90;;
76336;SDS011;65157;50.082;18.178;2024-03-02T07:53:37;93.40;;;41.70;;
76336;SDS011;65157;50.082;18.178;2024-03-02T07:56:03;92.30;;;45.60;;
76336;SDS011;65157;50.082;18.178;2024-03-02T07:58:29;84.30;;;38.60;;
76336;SDS011;65157;50.082;18.178;2024-03-02T08:00:56;87.20;;;40.40;;
76336;SDS011;65157;50.082;18.178;2024-03-02T08:03:22;81.20;;;38.80;;
76336;SDS011;65157;50.082;18.178;2024-03-02T08:05:48;86.20;;;39.30;;
76336;SDS011;65157;50.082;18.178;2024-03-02T08:08:14;90.40;;;42.90;;
76336;SDS011;65157;50.082;18.178;2024-03-02T08:10:40;83.60;;;41.20;;
76336;SDS011;65157;50.082;18.178;2024-03-02T08:13:06;79.40;;;37.60;;
76336;SDS011;65157;50.082;18.178;2024-03-02T08:15:31;78.80;;;40.20;;
76336;SDS011;65157;50.082;18.178;2024-03-02T08:17:57;75.60;;;35.60;;
76336;SDS011;65157;50.082;18.178;2024-03-02T08:20:24;72.50;;;36.00;;
76336;SDS011;65157;50.082;18.178;2024-03-02T08:22:50;75.80;;;36.60;;
76336;SDS011;65157;50.082;18.178;2024-03-02T08:25:16;73.90;;;38.00;;
76336;SDS011;65157;50.082;18.178;2024-03-02T08:27:42;72.60;;;36.50;;
76336;SDS011;65157;50.082;18.178;2024-03-02T08:30:08;71.50;;;39.10;;
76336;SDS011;65157;50.082;18.178;2024-03-02T08:32:37;73.70;;;36.50;;
76336;SDS011;65157;50.082;18.178;2024-03-02T08:35:03;67.30;;;33.00;;
76336;SDS011;65157;50.082;18.178;2024-03-02T08:37:30;74.10;;;37.60;;
76336;SDS011;65157;50.082;18.178;2024-03-02T08:39:56;67.80;;;32.80;;
76336;SDS011;65157;50.082;18.178;2024-03-02T08:42:21;70.70;;;36.90;;
76336;SDS011;65157;50.082;18.178;2024-03-02T08:44:48;64.40;;;34.40;;
76336;SDS011;65157;50.082;18.178;2024-03-02T08:47:14;74.60;;;38.10;;
76336;SDS011;65157;50.082;18.178;2024-03-02T08:49:40;66.00;;;35.00;;
76336;SDS011;65157;50.082;18.178;2024-03-02T08:52:06;70.10;;;34.30;;
76336;SDS011;65157;50.082;18.178;2024-03-02T08:54:32;71.10;;;33.80;;
76336;SDS011;65157;50.082;18.178;2024-03-02T08:56:58;74.60;;;36.80;;
76336;SDS011;65157;50.082;18.178;2024-03-02T08:59:25;65.90;;;33.90;;
76336;SDS011;65157;50.082;18.178;2024-03-02T09:01:51;70.60;;;33.50;;
76336;SDS011;65157;50.082;18.178;2024-03-02T09:04:17;66.30;;;35.80;;
76336;SDS011;65157;50.082;18.178;2024-03-02T09:06:43;68.40;;;34.50;;
76336;SDS011;65157;50.082;18.178;2024-03-02T09:09:08;61.80;;;34.00;;
76336;SDS011;65157;50.082;18.178;2024-03-02T09:11:34;65.90;;;33.20;;
76336;SDS011;65157;50.082;18.178;2024-03-02T09:14:00;66.70;;;34.30;;
76336;SDS011;65157;50.082;18.178;2024-03-02T09:16:26;64.30;;;34.10;;
76336;SDS011;65157;50.082;18.178;2024-03-02T09:18:52;67.60;;;37.30;;
76336;SDS011;65157;50.082;18.178;2024-03-02T09:21:18;62.60;;;34.00;;
76336;SDS011;65157;50.082;18.178;2024-03-02T09:23:44;67.40;;;35.30;;
76336;SDS011;65157;50.082;18.178;2024-03-02T09:26:10;64.80;;;34.00;;
76336;SDS011;65157;50.082;18.178;2024-03-02T09:28:36;62.10;;;32.10;;
76336;SDS011;65157;50.082;18.178;2024-03-02T09:31:01;61.30;;;30.80;;
76336;SDS011;65157;50.082;18.178;2024-03-02T09:33:27;64.80;;;33.50;;
76336;SDS011;65157;50.082;18.178;2024-03-02T09:35:53;66.90;;;37.00;;
76336;SDS011;65157;50.082;18.178;2024-03-02T09:38:19;68.60;;;37.30;;
76336;SDS011;65157;50.082;18.178;2024-03-02T09:40:45;69.40;;;39.30;;
76336;SDS011;65157;50.082;18.178;2024-03-02T09:43:11;72.00;;;37.40;;
76336;SDS011;65157;50.082;18.178;2024-03-02T09:45:38;75.00;;;40.90;;
76336;SDS011;65157;50.082;18.178;2024-03-02T09:48:04;72.00;;;38.40;;
76336;SDS011;65157;50.082;18.178;2024-03-02T09:50:30;64.20;;;36.20;;
76336;SDS011;65157;50.082;18.178;2024-03-02T09:52:57;64.80;;;35.80;;
76336;SDS011;65157;50.082;18.178;2024-03-02T09:55:24;66.70;;;35.10;;
76336;SDS011;65157;50.082;18.178;2024-03-02T09:57:50;60.40;;;35.20;;
76336;SDS011;65157;50.082;18.178;2024-03-02T10:00:17;66.50;;;37.70;;
76336;SDS011;65157;50.082;18.178;2024-03-02T10:02:43;65.30;;;33.90;;
76336;SDS011;65157;50.082;18.178;2024-03-02T10:05:09;66.70;;;35.00;;
76336;SDS011;65157;50.082;18.178;2024-03-02T10:18:26;68.00;;;34.80;;
76336;SDS011;65157;50.082;18.178;2024-03-02T10:20:53;65.30;;;34.00;;
76336;SDS011;65157;50.082;18.178;2024-03-02T10:23:20;54.40;;;30.10;;
76336;SDS011;65157;50.082;18.178;2024-03-02T10:25:47;58.90;;;31.10;;
76336;SDS011;65157;50.082;18.178;2024-03-02T10:30:41;56.00;;;30.70;;
76336;SDS011;65157;50.082;18.178;2024-03-02T10:33:07;60.80;;;31.60;;
76336;SDS011;65157;50.082;18.178;2024-03-02T10:35:34;56.40;;;33.80;;
76336;SDS011;65157;50.082;18.178;2024-03-02T10:38:00;60.50;;;33.90;;
76336;SDS011;65157;50.082;18.178;2024-03-02T10:40:29;60.60;;;34.30;;
76336;SDS011;65157;50.082;18.178;2024-03-02T10:42:56;58.50;;;29.40;;
76336;SDS011;65157;50.082;18.178;2024-03-02T10:45:23;57.30;;;30.40;;
76336;SDS011;65157;50.082;18.178;2024-03-02T10:47:51;57.50;;;30.20;;
76336;SDS011;65157;50.082;18.178;2024-03-02T10:50:17;55.20;;;29.80;;
76336;SDS011;65157;50.082;18.178;2024-03-02T10:52:44;56.90;;;29.80;;
76336;SDS011;65157;50.082;18.178;2024-03-02T10:55:12;57.20;;;32.60;;
76336;SDS011;65157;50.082;18.178;2024-03-02T10:57:42;55.00;;;31.90;;
76336;SDS011;65157;50.082;18.178;2024-03-02T11:00:17;54.90;;;33.90;;
76336;SDS011;65157;50.082;18.178;2024-03-02T11:02:57;51.80;;;28.10;;
76336;SDS011;65157;50.082;18.178;2024-03-02T11:05:27;51.00;;;27.90;;
76336;SDS011;65157;50.082;18.178;2024-03-02T11:07:57;49.40;;;29.80;;
76336;SDS011;65157;50.082;18.178;2024-03-02T11:10:35;54.90;;;27.50;;
76336;SDS011;65157;50.082;18.178;2024-03-02T11:13:14;50.80;;;26.90;;
76336;SDS011;65157;50.082;18.178;2024-03-02T11:15:42;45.20;;;26.50;;
76336;SDS011;65157;50.082;18.178;2024-03-02T11:18:11;53.40;;;30.30;;
76336;SDS011;65157;50.082;18.178;2024-03-02T11:20:39;61.80;;;32.00;;
76336;SDS011;65157;50.082;18.178;2024-03-02T11:23:09;47.80;;;28.20;;
76336;SDS011;65157;50.082;18.178;2024-03-02T11:25:36;44.70;;;27.20;;
76336;SDS011;65157;50.082;18.178;2024-03-02T11:33:00;44.30;;;26.00;;
76336;SDS011;65157;50.082;18.178;2024-03-02T11:35:28;49.80;;;28.80;;
76336;SDS011;65157;50.082;18.178;2024-03-02T11:37:54;49.90;;;29.30;;
76336;SDS011;65157;50.082;18.178;2024-03-02T11:40:22;50.80;;;29.30;;
76336;SDS011;65157;50.082;18.178;2024-03-02T11:42:49;48.60;;;26.50;;
76336;SDS011;65157;50.082;18.178;2024-03-02T11:45:16;42.00;;;26.10;;
76336;SDS011;65157;50.082;18.178;2024-03-02T11:47:49;33.40;;;20.30;;
76336;SDS011;65157;50.082;18.178;2024-03-02T11:50:29;32.20;;;18.20;;
76336;SDS011;65157;50.082;18.178;2024-03-02T11:52:57;25.50;;;16.20;;
76336;SDS011;65157;50.082;18.178;2024-03-02T11:55:25;17.50;;;12.00;;
76336;SDS011;65157;50.082;18.178;2024-03-02T11:57:52;14.30;;;8.70;;
76336;SDS011;65157;50.082;18.178;2024-03-02T12:00:19;14.60;;;10.30;;
76336;SDS011;65157;50.082;18.178;2024-03-02T12:02:47;17.10;;;9.80;;
76336;SDS011;65157;50.082;18.178;2024-03-02T12:05:26;15.10;;;8.70;;
76336;SDS011;65157;50.082;18.178;2024-03-02T12:08:02;13.30;;;9.00;;
76336;SDS011;65157;50.082;18.178;2024-03-02T12:10:30;13.50;;;9.90;;
76336;SDS011;65157;50.082;18.178;2024-03-02T12:13:02;17.00;;;10.90;;
76336;SDS011;65157;50.082;18.178;2024-03-02T12:15:32;17.20;;;12.40;;
76336;SDS011;65157;50.082;18.178;2024-03-02T12:18:00;17.70;;;11.40;;
76336;SDS011;65157;50.082;18.178;2024-03-02T12:20:28;11.70;;;8.80;;
76336;SDS011;65157;50.082;18.178;2024-03-02T12:22:59;11.40;;;8.70;;
76336;SDS011;65157;50.082;18.178;2024-03-02T12:25:28;13.80;;;9.90;;
76336;SDS011;65157;50.082;18.178;2024-03-02T12:27:57;13.90;;;9.10;;
76336;SDS011;65157;50.082;18.178;2024-03-02T12:30:26;14.00;;;10.00;;
76336;SDS011;65157;50.082;18.178;2024-03-02T12:32:55;11.50;;;8.10;;
76336;SDS011;65157;50.082;18.178;2024-03-02T12:35:22;10.60;;;9.40;;
76336;SDS011;65157;50.082;18.178;2024-03-02T12:37:51;10.10;;;7.80;;
76336;SDS011;65157;50.082;18.178;2024-03-02T12:40:20;11.20;;;7.80;;
76336;SDS011;65157;50.082;18.178;2024-03-02T12:42:48;11.00;;;8.30;;
76336;SDS011;65157;50.082;18.178;2024-03-02T12:45:15;11.60;;;8.00;;
76336;SDS011;65157;50.082;18.178;2024-03-02T12:47:43;11.60;;;8.80;;
76336;SDS011;65157;50.082;18.178;2024-03-02T12:50:11;10.20;;;7.30;;
76336;SDS011;65157;50.082;18.178;2024-03-02T12:52:38;9.40;;;6.90;;
76336;SDS011;65157;50.082;18.178;2024-03-02T12:55:05;8.70;;;7.80;;
76336;SDS011;65157;50.082;18.178;2024-03-02T12:57:32;9.90;;;7.10;;
76336;SDS011;65157;50.082;18.178;2024-03-02T13:00:03;9.90;;;6.90;;
76336;SDS011;65157;50.082;18.178;2024-03-02T13:02:31;8.80;;;6.70;;
76336;SDS011;65157;50.082;18.178;2024-03-02T13:04:57;8.80;;;7.20;;
76336;SDS011;65157;50.082;18.178;2024-03-02T13:09:52;9.60;;;6.50;;
76336;SDS011;65157;50.082;18.178;2024-03-02T13:12:25;9.10;;;5.70;;
76336;SDS011;65157;50.082;18.178;2024-03-02T13:14:52;7.80;;;5.70;;
76336;SDS011;65157;50.082;18.178;2024-03-02T13:17:19;10.00;;;7.30;;
76336;SDS011;65157;50.082;18.178;2024-03-02T13:19:51;9.40;;;6.70;;
76336;SDS011;65157;50.082;18.178;2024-03-02T13:22:18;8.20;;;6.30;;
76336;SDS011;65157;50.082;18.178;2024-03-02T13:24:45;12.80;;;9.10;;
76336;SDS011;65157;50.082;18.178;2024-03-02T13:27:11;11.20;;;7.40;;
76336;SDS011;65157;50.082;18.178;2024-03-02T13:29:38;20.80;;;12.40;;
76336;SDS011;65157;50.082;18.178;2024-03-02T13:34:31;23.30;;;9.90;;
76336;SDS011;65157;50.082;18.178;2024-03-02T13:37:00;56.00;;;20.60;;
76336;SDS011;65157;50.082;18.178;2024-03-02T13:39:26;29.80;;;16.00;;
76336;SDS011;65157;50.082;18.178;2024-03-02T13:41:53;10.00;;;6.40;;
76336;SDS011;65157;50.082;18.178;2024-03-02T13:44:20;14.00;;;7.50;;
76336;SDS011;65157;50.082;18.178;2024-03-02T13:46:48;14.10;;;8.20;;
76336;SDS011;65157;50.082;18.178;2024-03-02T13:49:16;14.70;;;8.60;;
76336;SDS011;65157;50.082;18.178;2024-03-02T13:51:43;21.20;;;12.50;;
76336;SDS011;65157;50.082;18.178;2024-03-02T13:54:10;18.30;;;9.80;;
76336;SDS011;65157;50.082;18.178;2024-03-02T13:56:36;32.50;;;18.10;;
76336;SDS011;65157;50.082;18.178;2024-03-02T13:59:03;28.10;;;15.10;;
76336;SDS011;65157;50.082;18.178;2024-03-02T14:01:31;9.70;;;7.40;;
76336;SDS011;65157;50.082;18.178;2024-03-02T14:03:58;8.90;;;6.60;;
76336;SDS011;65157;50.082;18.178;2024-03-02T14:06:25;9.80;;;7.00;;
76336;SDS011;65157;50.082;18.178;2024-03-02T14:08:51;12.60;;;7.80;;
76336;SDS011;65157;50.082;18.178;2024-03-02T14:11:18;7.30;;;5.40;;
76336;SDS011;65157;50.082;18.178;2024-03-02T14:13:45;7.00;;;5.00;;
76336;SDS011;65157;50.082;18.178;2024-03-02T14:16:12;6.40;;;5.00;;
76336;SDS011;65157;50.082;18.178;2024-03-02T14:18:38;9.40;;;5.60;;
76336;SDS011;65157;50.082;18.178;2024-03-02T14:21:05;9.70;;;5.90;;
76336;SDS011;65157;50.082;18.178;2024-03-02T14:23:32;11.70;;;7.50;;
76336;SDS011;65157;50.082;18.178;2024-03-02T14:25:59;10.70;;;6.40;;
76336;SDS011;65157;50.082;18.178;2024-03-02T14:30:52;12.80;;;7.40;;
76336;SDS011;65157;50.082;18.178;2024-03-02T14:33:19;11.40;;;7.20;;
76336;SDS011;65157;50.082;18.178;2024-03-02T14:35:46;12.20;;;6.90;;
76336;SDS011;65157;50.082;18.178;2024-03-02T14:38:12;11.80;;;8.00;;